Terminal Aerodrome Forecast
Issued by NWS Sterling, VA

Current Version | Previous Version | Graphics & Text | Print | Product List | Glossary On
Versions: 1 2 3 4 5 6 7 8 9 10 11 12 13 14
000
FTUS41 KLWX 221700
TAFMRB
TAF
KMRB 221737Z 2218/2318 15006KT P6SM BKN040
     FM230100 VRB04KT P6SM FEW250
     FM230900 VRB03KT 5SM BR SCT030
     FM231500 22006KT P6SM BKN090=

USA.gov is the U.S. government's official web portal to all federal, state and local government web resources and services.